• Join FlightAware (Why Join?)
  • Login
  • US Flag 
08:15PM EST


 

Airport Tracker/Info


-or-


 

Live Flight TrackerFlight Track Log ✈ EGC258 ✈ 26-Feb-2014 ✈ KAPF - KEYE

Flight Track Log - Related Links

Times and Time Zones

All times are in EST time to prevent confusion due to time zone crossing. See the EGC258 flight status page for this flight to view local times or setup timezone preferences in your user account.

Time Position Orientation Groundspeed Altitude Reporting Facility
EST Latitude Longitude Course Direction KTS MPH feet Rate Location/Type
06:14PM 26.1475 -81.8553 286° West 180 207 4,800  Level Miami Center
06:15PM 26.1658 -81.9256 286° West 212 244 7,400 2,700 Climbing Miami Center
06:16PM 26.1883 -82.0028 288° West 251 289 10,200 2,760 Climbing Miami Center
06:17PM 26.2108 -82.0711 290° West 258 297 13,000 2,760 Climbing Miami Center
06:18PM 26.2586 -82.1356 310° West 264 304 15,800 2,700 Climbing Miami Center
06:19PM 26.3083 -82.2028 310° West 278 320 18,400 2,460 Climbing Miami Center
06:20PM 26.3583 -82.2628 313° West 278 320 20,800 2,220 Climbing Miami Center
06:21PM 26.4211 -82.3189 321° Northwest 278 320 22,900 2,040 Climbing Miami Center
06:22PM 26.4989 -82.3550 337° Northwest 284 327 24,900 2,040 Climbing Miami Center
06:23PM 26.5747 -82.3911 337° Northwest 289 333 27,000 1,740 Climbing Miami Center
06:24PM 26.6525 -82.4342 334° Northwest 301 346 28,400 1,440 Climbing Miami Center
06:25PM 26.7342 -82.4778 335° Northwest 301 346 29,900 1,500 Climbing Miami Center
06:26PM 26.8142 -82.5164 337° Northwest 301 346 31,400 1,500 Climbing Miami Center
06:27PM 26.8919 -82.5575 335° Northwest 301 346 33,000 1,500 Climbing Miami Center
06:28PM 26.9653 -82.5983 334° Northwest 301 346 34,400 1,380 Climbing Miami Center
06:29PM 27.0411 -82.6392 334° Northwest 296 341 35,800 1,440 Climbing Miami Center
06:30PM 27.1147 -82.6756 336° Northwest 296 341 37,300 1,440 Climbing Miami Center
06:31PM 27.1753 -82.7275 323° Northwest 291 335 38,700 1,260 Climbing Miami Center
06:32PM 27.2444 -82.7661 334° Northwest 275 316 39,900 600 Climbing Miami Center
06:33PM 27.3142 -82.8000 337° Northwest 281 323 40,000  Climbing Miami Center
06:34PM 27.3939 -82.8392 336° Northwest 305 351 40,000  Level Miami Center
06:35PM 27.4939 -82.8911 335° Northwest 339 390 40,000  Level Miami Center
06:36PM 27.5817 -82.9356 336° Northwest 346 398 40,000  Level Miami Center
06:37PM 27.6675 -82.9800 335° Northwest 346 398 40,000  Level Miami Center
06:39PM 27.8472 -83.0661 337° Northwest 351 404 40,000  Level Jacksonville Center
06:40PM 27.9411 -83.1017 342° North 351 404 40,000  Level Jacksonville Center
06:41PM 28.0369 -83.1183 351° North 351 404 40,000  Level Jacksonville Center
06:42PM 28.1372 -83.1397 349° North 351 404 40,000  Level Jacksonville Center
06:43PM 28.2353 -83.1636 348° North 358 412 40,000  Level Jacksonville Center
06:44PM 28.3333 -83.1850 349° North 352 405 40,000  Level Jacksonville Center
06:45PM 28.4417 -83.2042 351° North 352 405 40,000  Level Jacksonville Center
06:46PM 28.5378 -83.2258 349° North 352 405 40,000  Level Jacksonville Center
06:47PM 28.6378 -83.2497 348° North 352 405 40,000  Level Jacksonville Center
06:48PM 28.7358 -83.2714 349° North 352 405 40,000  Level Jacksonville Center
06:49PM 28.8358 -83.2908 350° North 352 405 40,000  Level Jacksonville Center
06:50PM 28.9339 -83.3150 348° North 352 405 40,000  Level Jacksonville Center
06:51PM 29.0319 -83.3367 349° North 352 405 40,000  Level Jacksonville Center
06:52PM 29.1361 -83.3586 350° North 352 405 40,000  Level Jacksonville Center
06:53PM 29.2322 -83.3781 350° North 352 405 40,000  Level Jacksonville Center
06:54PM 29.3303 -83.4047 347° North 352 405 40,000  Level Jacksonville Center
06:55PM 29.4303 -83.4267 349° North 352 405 40,000  Level Jacksonville Center
06:56PM 29.5306 -83.4486 349° North 352 405 40,000  Level Jacksonville Center
06:57PM 29.6283 -83.4708 349° North 352 405 40,000  Level Jacksonville Center
06:58PM 29.7286 -83.4953 348° North 352 405 40,000  Level Jacksonville Center
06:59PM 29.8267 -83.5150 350° North 352 405 40,000  Level Jacksonville Center
07:00PM 29.9267 -83.5397 348° North 352 405 40,000  Level Jacksonville Center
07:01PM 30.0247 -83.5594 350° North 352 405 40,000  Level Jacksonville Center
07:02PM 30.1247 -83.5817 349° North 352 405 40,000  Level Jacksonville Center
07:03PM 30.2228 -83.6042 349° North 352 405 40,000  Level Jacksonville Center
07:04PM 30.3228 -83.6267 349° North 357 411 40,000  Level Jacksonville Center
07:05PM 30.4208 -83.6489 349° North 357 411 40,000  Level Jacksonville Center
07:06PM 30.5208 -83.6714 349° North 357 411 40,000  Level Jacksonville Center
07:07PM 30.6044 -83.6914 348° North 351 404 40,000  Level Jacksonville Center
07:08PM 30.7044 -83.7139 349° North 351 404 40,000  Level Jacksonville Center
07:09PM 30.8025 -83.7367 349° North 356 410 40,000  Level Jacksonville Center
07:10PM 30.9044 -83.7617 348° North 356 410 40,000  Level Jacksonville Center
07:11PM 31.0108 -83.7844 350° North 356 410 40,000  Level Jacksonville Center
07:13PM 31.2039 -83.8325 348° North 369 425 40,000  Level Atlanta Center
07:14PM 31.3042 -83.8567 348° North 369 425 40,000  Level Atlanta Center
07:15PM 31.4022 -83.8783 349° North 369 425 40,000  Level Atlanta Center
07:16PM 31.5003 -83.9025 348° North 363 418 40,000  Level Atlanta Center
07:17PM 31.6089 -83.9317 347° North 363 418 40,000  Level Atlanta Center
07:18PM 31.7131 -83.9558 349° North 363 418 40,000  Level Atlanta Center
07:19PM 31.8133 -83.9778 349° North 368 423 40,000  Level Atlanta Center
07:20PM 31.9136 -83.9997 349° North 373 429 40,000  Level Atlanta Center
07:21PM 32.0158 -84.0242 349° North 373 429 40,000  Level Atlanta Center
07:22PM 32.1139 -84.0461 349° North 366 421 40,000  Level Atlanta Center
07:23PM 32.2161 -84.0708 348° North 371 427 40,000  Level Atlanta Center
07:24PM 32.3164 -84.0928 350° North 371 427 40,000  Level Atlanta Center
07:25PM 32.4167 -84.1175 348° North 371 427 40,000  Level Atlanta Center
07:26PM 32.5208 -84.1422 349° North 371 427 40,000  Level Atlanta Center
07:27PM 32.6189 -84.1669 348° North 371 427 40,000  Level Atlanta Center
07:28PM 32.7214 -84.1894 350° North 371 427 40,000  Level Atlanta Center
07:29PM 32.8214 -84.2167 347° North 371 427 40,000  Level Atlanta Center
07:30PM 32.9217 -84.2442 347° North 371 427 40,000  Level Atlanta Center
07:31PM 33.0239 -84.2667 350° North 371 427 40,000  Level Atlanta Center
07:32PM 33.1261 -84.2917 348° North 371 427 40,000  Level Atlanta Center
07:33PM 33.2178 -84.3119 350° North 371 427 40,000  Level Atlanta Center
07:34PM 33.3181 -84.3397 347° North 371 427 40,000  Level Atlanta Center
07:35PM 33.4203 -84.3622 350° North 371 427 40,000  Level Atlanta Center
07:36PM 33.5225 -84.3878 348° North 369 425 40,000  Level Atlanta Center
07:37PM 33.6372 -84.4156 349° North 374 430 40,000  Level Atlanta Center
07:38PM 33.7372 -84.4411 348° North 374 430 40,000  Level Atlanta Center
07:39PM 33.8394 -84.4639 350° North 374 430 40,000  Level Atlanta Center
07:40PM 33.9417 -84.4894 348° North 374 430 40,000  Level Atlanta Center
07:41PM 34.0458 -84.5175 347° North 368 423 40,000  Level Atlanta Center
07:42PM 34.1417 -84.5383 350° North 377 434 40,000  Level Atlanta Center
07:43PM 34.2439 -84.5639 348° North 383 441 40,000  Level Atlanta Center
07:44PM 34.3483 -84.5897 348° North 377 434 40,000  Level Atlanta Center
07:45PM 34.4503 -84.6131 349° North 369 425 40,000  Level Atlanta Center
07:46PM 34.5525 -84.6392 348° North 369 425 40,000  Level Atlanta Center
07:47PM 34.6650 -84.6675 348° North 374 430 40,000  Level Atlanta Center
07:48PM 34.7525 -84.6961 345° North 369 425 40,000  Level Atlanta Center
07:49PM 34.8631 -84.7247 348° North 369 425 40,000  Level Atlanta Center
07:50PM 34.9589 -84.7458 350° North 374 430 40,000  Level Atlanta Center
07:51PM 35.0608 -84.7722 348° North 374 430 40,000  Level Atlanta Center
07:52PM 35.1608 -84.7983 348° North 374 430 40,000  Level Atlanta Center
07:53PM 35.2650 -84.8247 348° North 374 430 40,000  Level Atlanta Center
07:54PM 35.3672 -84.8511 348° North 374 430 40,000  Level Atlanta Center
07:55PM 35.4692 -84.8778 348° North 374 430 40,000  Level Atlanta Center
07:56PM 35.5733 -84.9017 349° North 374 430 40,000  Level Atlanta Center
07:58PM 35.7783 -84.9547 348° North 378 435 40,000  Level Indianapolis Center
07:59PM 35.9011 -84.9869 348° North 378 435 40,000  Level Indianapolis Center
08:00PM 35.9958 -85.0114 348° North 378 435 40,000  Level Indianapolis Center
08:01PM 36.0978 -85.0378 348° North 373 429 40,000  Level Indianapolis Center
08:02PM 36.1989 -85.0686 346° North 372 428 40,000  Level Indianapolis Center
08:03PM 36.2892 -85.1206 335° Northwest 359 413 40,000  Level Indianapolis Center
08:04PM 36.3964 -85.1808 336° Northwest 357 411 40,000  Level Indianapolis Center
08:05PM 36.4872 -85.2308 336° Northwest 357 411 40,000 -480 Level Indianapolis Center
08:06PM 36.5769 -85.2800 336° Northwest 355 409 39,100 -900 Descending Indianapolis Center
08:07PM 36.6661 -85.3289 336° Northwest 354 407 38,200 -960 Descending Indianapolis Center
08:08PM 36.7564 -85.3761 337° Northwest 352 405 37,200 -1,020 Descending Indianapolis Center
08:09PM 36.8475 -85.4264 336° Northwest 353 406 36,200 -1,020 Descending Indianapolis Center
08:10PM 36.9389 -85.4767 336° Northwest 354 407 35,200 -1,020 Descending Indianapolis Center
08:11PM 37.0464 -85.5169 343° North 374 430 34,100 -1,020 Descending Indianapolis Center
08:12PM 37.1575 -85.5267 356° North 393 452 33,100 -1,020 Descending Indianapolis Center
08:13PM 37.2675 -85.5347 357° North 393 452 32,100 -540 Descending Indianapolis Center
08:14PM 37.3847 -85.5447 356° North 406 467 32,000 -60 Descending Indianapolis Center
08:16PM 37.5000 -85.5514 357° North 410 472 32,000  Level Indianapolis Center
08:17PM 37.6122 -85.5611 356° North 409 471 32,000  Level Indianapolis Center
08:18PM 37.7486 -85.5719 356° North 409 471 32,000  Level Indianapolis Center
08:19PM 37.8631 -85.5803 357° North 409 471 32,000  Level Indianapolis Center
08:20PM 37.9761 -85.5900 356° North 409 471 32,000  Level Indianapolis Center
08:21PM 38.0872 -85.5986 357° North 405 466 32,000 -540 Level Indianapolis Center
08:22PM 38.2025 -85.6064 357° North 408 470 30,900 -1,500 Descending Indianapolis Center
08:23PM 38.3128 -85.6147 357° North 402 463 28,900 -1,980 Descending Indianapolis Center
08:24PM 38.4222 -85.6239 356° North 394 453 26,900 -1,980 Descending Indianapolis Center
08:25PM 38.5344 -85.6322 357° North 397 457 24,900 -1,680 Descending Indianapolis Center
08:26PM 38.6556 -85.6461 355° North 394 453 23,500 -1,800 Descending Indianapolis Center
08:27PM 38.7567 -85.6661 351° North 376 433 21,200 -2,340 Descending Indianapolis Center
08:28PM 38.8547 -85.6839 352° North 364 419 18,800 -2,280 Descending Indianapolis Center
08:29PM 38.9469 -85.7000 352° North 344 396 16,600 -2,040 Descending Indianapolis Center
08:30PM 39.0533 -85.7194 352° North 327 376 14,600 -1,740 Descending Indianapolis Center
08:31PM 39.1419 -85.7356 352° North 327 376 13,100 -1,620 Descending Indianapolis Center
08:32PM 39.2292 -85.7517 352° North 324 373 11,300 -1,560 Descending Indianapolis Center
08:33PM 39.3158 -85.7700 351° North 320 368 10,000 -660 Descending Indianapolis Center
08:34PM 39.3717 -85.8383 317° Northwest 288 331 10,000 -120 Level Indianapolis Center
08:35PM 39.4275 -85.9039 318° Northwest 277 319 9,800 -840 Descending Indianapolis Center
08:36PM 39.4781 -85.9644 317° Northwest 258 297 8,300 -1,620 Descending Indianapolis Center
08:37PM 39.5347 -86.0303 318° Northwest 234 269 6,500 -1,620 Descending Indianapolis Center
08:38PM 39.5875 -86.0756 327° Northwest 231 266 5,000 -1,260 Descending Indianapolis Center
08:39PM 39.6372 -86.1203 325° Northwest 227 261 4,000 -540 Descending Indianapolis Center
08:40PM 39.6842 -86.1622 325° Northwest 217 250 4,000 -300 Level Indianapolis Center
08:41PM 39.7297 -86.2028 326° Northwest 209 241 3,400 -720 Descending Indianapolis Center
08:42PM 39.7764 -86.2464 324° Northwest 190 219 2,600 -540 Descending Indianapolis Center
08:43PM 39.8158 -86.2511 355° North 170 196 2,300 -480 Descending Indianapolis Center
08:44PM 39.8503 -86.2339 21° North 161 185 1,700 -600 Descending Indianapolis Center